Soddy-Daisy, TN (37379)

12:30 PM EST on January 20, 2017 (GMT -0500)
Windmill Weather and Web Cam | | Change Station

Elev 800 ft 35.21 °N, 85.13 °W | Updated 161 days ago

Overcast
Overcast
76.7 °F
Feels Like 77 °F
N
0.0
Wind Variable Wind from South
Gusts 0.0 mph

Today
High -- | Low -- °F
--% Chance of Precip.
Yesterday
High -- | Low -- °F
Precip. -- in
Pressure 29.85 in
Visibility 10.0 miles
Clouds Scattered Clouds 2200 ft
Mostly Cloudy 3000 ft
Mostly Cloudy 6000 ft
Heat Index 77 °F
Dew Point 74 °F
Humidity 91%
Rainfall 0.67 in
Snow Depth Not available.
7:46 AM 5:56 PM
Last Quarter, 42% visible
METAR KCHA 201653Z 23009KT 10SM SCT022 BKN030 BKN060 19/12 A2986 RMK AO2 SLP106 T01890122
Pressure 29.85 in
Visibility 10.0 miles
Clouds Scattered Clouds 2200 ft
Mostly Cloudy 3000 ft
Mostly Cloudy 6000 ft
Heat Index 77 °F
Dew Point 74 °F
Humidity 91%
Rainfall 0.67 in
Snow Depth Not available.
7:46 AM 5:56 PM
Last Quarter, 42% visible
METAR KCHA 201653Z 23009KT 10SM SCT022 BKN030 BKN060 19/12 A2986 RMK AO2 SLP106 T01890122

Get Your Daily Forecast Email!

Thanks for signing up!

Be on the lookout for a verification email in your inbox.

You'll start receiving the daily forecast at 8 AM.

×

10-Day Weather Forecast

Almanac

Astronomy

Jan. 20, 2017 Rise Set
Actual Time
Civil Twilight
Nautical Twilight
Astronomical Twilight
Moon
Length of Visible Light
Length of Day
Tomorrow will be .
, % of the Moon is Illuminated

Today's Extremes

State Highs State Lows

Community

WunderPhotos

Upload Photos

1,962,540 photos uploaded!

WunderBlog® & News

Nearby

Air Quality

  Air Quality AQ Index Pollutant
Not available.

Snow Depth

Station Depth Elevation

Earthquake Activity

City Distance Mag. Time & Date
Minimum magnitude displayed is 2.5.

Coastal Water Temperatures

Place Temperature

Stations

Nearby Weather Stations

Station Location Temp. Windchill Dew Point Humidity Wind Precip. Elev Updated Type
                   

Watches & Warnings

There are currently no watches in effect.